createdAt,value
2018-06-12T00:00:45.637Z,947.71
2018-06-12T00:01:45.633Z,947.7
2018-06-12T00:02:45.626Z,947.72
2018-06-12T00:03:45.621Z,947.69
2018-06-12T00:04:45.663Z,947.69
2018-06-12T00:05:45.608Z,947.7
2018-06-12T00:06:45.602Z,947.7
2018-06-12T00:07:45.599Z,947.69
2018-06-12T00:08:45.594Z,947.73
2018-06-12T00:09:45.584Z,947.71
2018-06-12T00:10:45.577Z,947.68
2018-06-12T00:11:45.572Z,947.7
2018-06-12T00:12:45.566Z,947.72
2018-06-12T00:13:45.560Z,947.71
2018-06-12T00:14:45.553Z,947.74
2018-06-12T00:15:45.547Z,947.73
2018-06-12T00:16:45.540Z,947.75
2018-06-12T00:17:45.535Z,947.74
2018-06-12T00:18:45.529Z,947.75
2018-06-12T00:19:45.524Z,947.8
2018-06-12T00:20:45.518Z,947.78
2018-06-12T00:21:45.511Z,947.76
2018-06-12T00:22:45.506Z,947.78
2018-06-12T00:23:45.499Z,947.76
2018-06-12T00:24:45.493Z,947.77
2018-06-12T00:25:45.487Z,947.75
2018-06-12T00:26:45.480Z,947.73
2018-06-12T00:27:45.475Z,947.7
2018-06-12T00:28:45.469Z,947.71
2018-06-12T00:29:45.467Z,947.67
2018-06-12T00:30:45.458Z,947.67
2018-06-12T00:31:45.452Z,947.67
2018-06-12T00:32:45.444Z,947.61
2018-06-12T00:33:45.440Z,947.59
2018-06-12T00:34:45.434Z,947.55
2018-06-12T00:35:45.428Z,947.57
2018-06-12T00:36:45.420Z,947.51
2018-06-12T00:37:45.415Z,947.55
2018-06-12T00:38:45.410Z,947.55
2018-06-12T00:39:45.402Z,947.54
2018-06-12T00:40:45.396Z,947.57
2018-06-12T00:41:45.391Z,947.56
2018-06-12T00:42:45.385Z,947.59
2018-06-12T00:43:45.379Z,947.6
2018-06-12T00:44:45.373Z,947.64
2018-06-12T00:45:45.368Z,947.65
2018-06-12T00:46:45.362Z,947.68
2018-06-12T00:47:45.354Z,947.67
2018-06-12T00:48:45.353Z,947.71
2018-06-12T00:49:45.343Z,947.71
2018-06-12T00:50:45.339Z,947.74
2018-06-12T00:51:45.331Z,947.78
2018-06-12T00:52:45.325Z,947.78
2018-06-12T00:53:45.319Z,947.79
2018-06-12T00:54:45.313Z,947.82
2018-06-12T00:55:45.307Z,947.83
2018-06-12T00:56:45.307Z,947.85
2018-06-12T00:57:45.296Z,947.86
2018-06-12T00:58:45.293Z,947.82
2018-06-12T00:59:45.283Z,947.82
2018-06-12T01:00:45.277Z,947.81
2018-06-12T01:01:45.271Z,947.8
2018-06-12T01:02:45.274Z,947.79
2018-06-12T01:03:45.260Z,947.75
2018-06-12T01:04:45.254Z,947.77
2018-06-12T01:05:45.253Z,947.8
2018-06-12T01:06:45.242Z,947.79
2018-06-12T01:07:45.239Z,947.8
2018-06-12T01:08:45.231Z,947.83
2018-06-12T01:09:45.223Z,947.83
2018-06-12T01:10:45.218Z,947.84
2018-06-12T01:11:45.212Z,947.85
2018-06-12T01:12:45.206Z,947.84
2018-06-12T01:13:45.201Z,947.89
2018-06-12T01:14:45.194Z,947.88
2018-06-12T01:15:45.190Z,947.92
2018-06-12T01:16:45.183Z,947.95
2018-06-12T01:17:45.177Z,947.95
2018-06-12T01:18:45.172Z,947.98
2018-06-12T01:19:45.167Z,947.98
2018-06-12T01:20:45.160Z,948
2018-06-12T01:21:45.154Z,948.02
2018-06-12T01:22:45.149Z,948.01
2018-06-12T01:23:45.144Z,948.03
2018-06-12T01:24:45.138Z,948.02
2018-06-12T01:25:45.131Z,948.01
2018-06-12T01:26:45.126Z,948
2018-06-12T01:27:45.120Z,948.01
2018-06-12T01:28:45.114Z,947.97
2018-06-12T01:29:45.107Z,947.97
2018-06-12T01:31:27.555Z,947.93
2018-06-12T01:32:27.549Z,947.96
2018-06-12T01:33:27.544Z,947.96
2018-06-12T01:34:27.537Z,947.94
2018-06-12T01:35:27.531Z,947.95
2018-06-12T01:36:27.527Z,947.93
2018-06-12T01:37:27.521Z,947.9
2018-06-12T01:38:27.514Z,947.88
2018-06-12T01:39:27.527Z,947.87
2018-06-12T01:40:27.503Z,947.87
2018-06-12T01:41:27.496Z,947.86
2018-06-12T01:42:27.491Z,947.83
2018-06-12T01:43:27.486Z,947.84
2018-06-12T01:44:27.480Z,947.81
2018-06-12T01:45:27.474Z,947.88
2018-06-12T01:46:27.468Z,947.82
2018-06-12T01:47:27.463Z,947.87
2018-06-12T01:48:27.458Z,947.87
2018-06-12T01:49:27.451Z,947.85
2018-06-12T01:50:27.445Z,947.9
2018-06-12T01:51:27.440Z,947.9
2018-06-12T01:52:27.432Z,947.91
2018-06-12T01:53:27.426Z,947.9
2018-06-12T01:54:27.425Z,947.9
2018-06-12T01:55:27.416Z,947.92
2018-06-12T01:56:27.412Z,947.92
2018-06-12T01:57:27.404Z,947.95
2018-06-12T01:58:27.398Z,947.94
2018-06-12T01:59:27.393Z,947.91
2018-06-12T02:00:27.386Z,947.92
2018-06-12T02:01:27.386Z,947.95
2018-06-12T02:02:27.374Z,947.96
2018-06-12T02:03:27.369Z,947.95
2018-06-12T02:04:27.366Z,947.98
2018-06-12T02:05:27.358Z,947.92
2018-06-12T02:06:27.360Z,947.94
2018-06-12T02:07:27.346Z,947.99
2018-06-12T02:08:27.340Z,947.97
2018-06-12T02:09:27.335Z,947.96
2018-06-12T02:10:27.329Z,947.93
2018-06-12T02:11:27.322Z,947.95
2018-06-12T02:12:27.318Z,947.9
2018-06-12T02:13:27.312Z,947.86
2018-06-12T02:14:27.305Z,947.84
2018-06-12T02:15:27.300Z,947.85
2018-06-12T02:16:27.295Z,947.82
2018-06-12T02:17:27.288Z,947.86
2018-06-12T02:18:27.282Z,947.83
2018-06-12T02:19:27.276Z,947.85
2018-06-12T02:20:27.271Z,947.85
2018-06-12T02:21:27.311Z,947.84
2018-06-12T02:22:27.259Z,947.83
2018-06-12T02:23:27.256Z,947.88
2018-06-12T02:24:27.249Z,947.86
2018-06-12T02:25:27.241Z,947.84
2018-06-12T02:26:27.234Z,947.8
2018-06-12T02:27:27.231Z,947.83
2018-06-12T02:28:27.223Z,947.81
2018-06-12T02:29:27.216Z,947.84
2018-06-12T02:30:27.213Z,947.84
2018-06-12T02:31:27.204Z,947.84
2018-06-12T02:32:27.198Z,947.85
2018-06-12T02:33:27.194Z,947.85
2018-06-12T02:34:27.188Z,947.86
2018-06-12T02:35:27.189Z,947.82
2018-06-12T02:36:27.177Z,947.78
2018-06-12T02:37:27.169Z,947.77
2018-06-12T02:38:27.163Z,947.76
2018-06-12T02:39:27.157Z,947.78
2018-06-12T02:40:27.150Z,947.79
2018-06-12T02:41:27.145Z,947.76
2018-06-12T02:42:27.139Z,947.79
2018-06-12T02:43:27.132Z,947.83
2018-06-12T02:44:27.132Z,947.8
2018-06-12T02:45:27.123Z,947.83
2018-06-12T02:46:27.116Z,947.84
2018-06-12T02:47:27.109Z,947.87
2018-06-12T02:48:27.103Z,947.86
2018-06-12T02:49:27.096Z,947.85
2018-06-12T02:50:27.092Z,947.85
2018-06-12T02:51:27.084Z,947.86
2018-06-12T02:52:27.080Z,947.87
2018-06-12T02:53:27.074Z,947.9
2018-06-12T02:54:27.067Z,947.92
2018-06-12T02:55:27.060Z,947.93
2018-06-12T02:56:27.055Z,947.95
2018-06-12T02:57:27.050Z,947.94
2018-06-12T02:58:27.042Z,947.93
2018-06-12T02:59:27.037Z,947.96
2018-06-12T03:00:27.032Z,947.99
2018-06-12T03:01:27.033Z,947.99
2018-06-12T03:02:27.020Z,947.99
2018-06-12T03:03:27.012Z,947.98
2018-06-12T03:04:27.009Z,948.02
2018-06-12T03:05:27.002Z,948
2018-06-12T03:06:26.997Z,948.01
2018-06-12T03:07:26.992Z,948.08
2018-06-12T03:08:26.986Z,948.08
2018-06-12T03:09:26.978Z,948.06
2018-06-12T03:10:26.973Z,948.08
2018-06-12T03:11:26.966Z,948.07
2018-06-12T03:12:26.962Z,948.06
2018-06-12T03:13:26.956Z,948.08
2018-06-12T03:14:26.950Z,948.1
2018-06-12T03:15:26.945Z,948.12
2018-06-12T03:16:26.938Z,948.13
2018-06-12T03:17:26.932Z,948.12
2018-06-12T03:18:26.926Z,948.14
2018-06-12T03:19:26.921Z,948.15
2018-06-12T03:20:26.915Z,948.18
2018-06-12T03:21:26.912Z,948.2
2018-06-12T03:22:26.903Z,948.12
2018-06-12T03:23:26.900Z,948.17
2018-06-12T03:24:26.891Z,948.17
2018-06-12T03:25:26.891Z,948.2
2018-06-12T03:26:26.881Z,948.2
2018-06-12T03:27:26.874Z,948.19
2018-06-12T03:28:26.868Z,948.18
2018-06-12T03:29:26.862Z,948.14
2018-06-12T03:30:26.858Z,948.18
2018-06-12T03:31:26.850Z,948.18
2018-06-12T03:32:26.844Z,948.12
2018-06-12T03:33:26.838Z,948.15
2018-06-12T03:34:26.832Z,948.16
2018-06-12T03:35:26.826Z,948.16
2018-06-12T03:36:26.819Z,948.17
2018-06-12T03:37:26.815Z,948.13
2018-06-12T03:38:26.808Z,948.15
2018-06-12T03:39:26.802Z,948.15
2018-06-12T03:40:26.797Z,948.18
2018-06-12T03:41:26.791Z,948.2
2018-06-12T03:42:26.784Z,948.18
2018-06-12T03:43:26.778Z,948.18
2018-06-12T03:44:26.773Z,948.21
2018-06-12T03:45:26.768Z,948.23
2018-06-12T03:46:26.760Z,948.22
2018-06-12T03:47:26.755Z,948.21
2018-06-12T03:48:26.749Z,948.23
2018-06-12T03:49:26.741Z,948.24
2018-06-12T03:50:26.736Z,948.27
2018-06-12T03:51:26.730Z,948.25
2018-06-12T03:52:26.725Z,948.24
2018-06-12T03:53:26.720Z,948.27
2018-06-12T03:54:26.712Z,948.23
2018-06-12T03:55:26.707Z,948.2
2018-06-12T03:56:26.701Z,948.18
2018-06-12T03:57:26.707Z,948.19
2018-06-12T03:58:26.689Z,948.14
2018-06-12T03:59:26.687Z,948.1
2018-06-12T04:00:26.677Z,948.09
2018-06-12T04:01:26.674Z,948.13
2018-06-12T04:02:26.664Z,948.11
2018-06-12T04:03:26.658Z,948.08
2018-06-12T04:04:26.653Z,948.07
2018-06-12T04:05:26.646Z,948.07
2018-06-12T04:06:26.640Z,948.1
2018-06-12T04:07:26.638Z,948.11
2018-06-12T04:08:26.628Z,948.1
2018-06-12T04:09:26.682Z,948.08
2018-06-12T04:10:26.617Z,948.13
2018-06-12T04:11:26.609Z,948.12
2018-06-12T04:12:26.603Z,948.14
2018-06-12T04:13:26.598Z,948.12
2018-06-12T04:14:26.592Z,948.16
2018-06-12T04:15:26.587Z,948.14
2018-06-12T04:16:26.580Z,948.14
2018-06-12T04:17:26.573Z,948.1
2018-06-12T04:18:26.567Z,948.11
2018-06-12T04:19:26.560Z,948.14
2018-06-12T04:20:26.608Z,948.15
2018-06-12T04:21:26.550Z,948.14
2018-06-12T04:22:26.544Z,948.18
2018-06-12T04:23:26.538Z,948.16
2018-06-12T04:24:26.532Z,948.16
2018-06-12T04:25:26.528Z,948.18
2018-06-12T04:26:26.520Z,948.2
2018-06-12T04:27:26.518Z,948.19
2018-06-12T04:28:26.510Z,948.21
2018-06-12T04:29:26.503Z,948.2
2018-06-12T04:30:26.498Z,948.22
2018-06-12T04:31:26.491Z,948.22
2018-06-12T04:32:26.487Z,948.2
2018-06-12T04:33:26.480Z,948.24
2018-06-12T04:34:26.473Z,948.24
2018-06-12T04:35:26.470Z,948.27
2018-06-12T04:36:26.464Z,948.2
2018-06-12T04:37:26.458Z,948.2
2018-06-12T04:38:26.452Z,948.25
2018-06-12T04:39:26.447Z,948.19
2018-06-12T04:40:26.442Z,948.26
2018-06-12T04:41:26.437Z,948.23
2018-06-12T04:42:26.431Z,948.25
2018-06-12T04:43:26.468Z,948.24
2018-06-12T04:44:26.419Z,948.28
2018-06-12T04:45:26.415Z,948.28
2018-06-12T04:46:26.409Z,948.31
2018-06-12T04:47:26.403Z,948.31
2018-06-12T04:48:26.398Z,948.31
2018-06-12T04:49:26.396Z,948.33
2018-06-12T04:50:26.387Z,948.3
2018-06-12T04:51:26.380Z,948.31
2018-06-12T04:52:26.375Z,948.32
2018-06-12T04:53:26.370Z,948.35
2018-06-12T04:54:26.364Z,948.37
2018-06-12T04:55:26.358Z,948.42
2018-06-12T04:56:26.353Z,948.42
2018-06-12T04:57:26.347Z,948.43
2018-06-12T04:58:26.342Z,948.44
2018-06-12T04:59:26.337Z,948.46
2018-06-12T05:00:26.331Z,948.46
2018-06-12T05:01:26.324Z,948.47
2018-06-12T05:02:26.319Z,948.48
2018-06-12T05:03:26.314Z,948.51
2018-06-12T05:04:26.309Z,948.48
2018-06-12T05:05:26.303Z,948.52
2018-06-12T05:06:26.296Z,948.48
2018-06-12T05:07:26.292Z,948.51
2018-06-12T05:08:26.288Z,948.47
2018-06-12T05:09:26.281Z,948.47
2018-06-12T05:10:26.307Z,948.5
2018-06-12T05:11:26.271Z,948.48
2018-06-12T05:12:26.266Z,948.5
2018-06-12T05:13:26.260Z,948.46
2018-06-12T05:14:26.255Z,948.47
2018-06-12T05:15:26.250Z,948.48
2018-06-12T05:16:26.247Z,948.49
2018-06-12T05:17:26.238Z,948.48
2018-06-12T05:18:26.233Z,948.48
2018-06-12T05:19:26.228Z,948.47
2018-06-12T05:20:26.222Z,948.45
2018-06-12T05:21:26.217Z,948.46
2018-06-12T05:22:26.212Z,948.45
2018-06-12T05:23:26.206Z,948.51
2018-06-12T05:24:26.200Z,948.51
2018-06-12T05:25:26.221Z,948.52
2018-06-12T05:26:26.191Z,948.52
2018-06-12T05:27:26.185Z,948.54
2018-06-12T05:28:26.180Z,948.56
2018-06-12T05:29:26.174Z,948.55
2018-06-12T05:30:26.168Z,948.58
2018-06-12T05:31:26.164Z,948.55
2018-06-12T05:32:26.158Z,948.56
2018-06-12T05:33:26.153Z,948.52
2018-06-12T05:34:26.147Z,948.52
2018-06-12T05:35:26.141Z,948.5
2018-06-12T05:36:26.136Z,948.48
2018-06-12T05:37:26.131Z,948.52
2018-06-12T05:38:26.127Z,948.53
2018-06-12T05:39:26.121Z,948.57
2018-06-12T05:40:26.115Z,948.62
2018-06-12T05:41:26.109Z,948.62
2018-06-12T05:42:26.104Z,948.64
2018-06-12T05:43:26.101Z,948.68
2018-06-12T05:44:26.093Z,948.64
2018-06-12T05:45:26.089Z,948.67
2018-06-12T05:46:26.083Z,948.66
2018-06-12T05:47:26.081Z,948.66
2018-06-12T05:48:26.072Z,948.61
2018-06-12T05:49:26.067Z,948.66
2018-06-12T05:50:26.061Z,948.65
2018-06-12T05:51:26.055Z,948.68
2018-06-12T05:52:26.050Z,948.72
2018-06-12T05:53:26.048Z,948.76
2018-06-12T05:54:26.037Z,948.75
2018-06-12T05:55:26.033Z,948.77
2018-06-12T05:56:26.032Z,948.81
2018-06-12T05:57:26.022Z,948.8
2018-06-12T05:58:26.051Z,948.8
2018-06-12T05:59:26.011Z,948.81
2018-06-12T06:00:26.006Z,948.84
2018-06-12T06:01:25.999Z,948.87
2018-06-12T06:02:26.001Z,948.85
2018-06-12T06:03:25.993Z,948.9
2018-06-12T06:04:25.983Z,948.9
2018-06-12T06:05:25.977Z,948.94
2018-06-12T06:06:25.971Z,948.91
2018-06-12T06:07:25.966Z,948.95
2018-06-12T06:08:25.960Z,948.93
2018-06-12T06:09:25.954Z,948.93
2018-06-12T06:10:25.949Z,948.92
2018-06-12T06:11:25.944Z,948.9
2018-06-12T06:12:25.940Z,948.93
2018-06-12T06:13:25.935Z,948.91
2018-06-12T06:14:25.926Z,948.9
2018-06-12T06:15:25.924Z,948.91
2018-06-12T06:16:25.917Z,948.95
2018-06-12T06:17:25.909Z,948.94
2018-06-12T06:18:25.904Z,948.96
2018-06-12T06:19:25.897Z,948.96
2018-06-12T06:20:25.893Z,948.96
2018-06-12T06:21:25.886Z,949
2018-06-12T06:22:25.944Z,948.98
2018-06-12T06:23:25.880Z,948.98
2018-06-12T06:24:25.870Z,948.99
2018-06-12T06:25:25.862Z,949.03
2018-06-12T06:26:25.863Z,949.04
2018-06-12T06:27:25.869Z,949.06
2018-06-12T06:28:25.850Z,949.04
2018-06-12T06:29:25.841Z,949.07
2018-06-12T06:30:25.835Z,949.13
2018-06-12T06:31:25.839Z,949.13
2018-06-12T06:32:25.824Z,949.17
2018-06-12T06:33:25.819Z,949.12
2018-06-12T06:34:25.811Z,949.12
2018-06-12T06:35:25.807Z,949.13
2018-06-12T06:36:25.801Z,949.13
2018-06-12T06:37:25.795Z,949.1
2018-06-12T06:38:25.789Z,949.14
2018-06-12T06:39:25.784Z,949.11
2018-06-12T06:40:25.779Z,949.13
2018-06-12T06:41:25.781Z,949.14
2018-06-12T06:42:25.768Z,949.1
2018-06-12T06:43:25.761Z,949.13
2018-06-12T06:44:25.758Z,949.12
2018-06-12T06:45:25.750Z,949.1
2018-06-12T06:46:25.744Z,949.07
2018-06-12T06:47:25.739Z,949.11
2018-06-12T06:48:25.733Z,949.09
2018-06-12T06:49:25.727Z,949.1
2018-06-12T06:50:25.722Z,949.09
2018-06-12T06:51:25.717Z,949.11
2018-06-12T06:52:25.711Z,949.12
2018-06-12T06:53:25.705Z,949.14
2018-06-12T06:54:25.700Z,949.13
2018-06-12T06:55:25.695Z,949.16
2018-06-12T06:56:25.688Z,949.17
2018-06-12T06:57:25.683Z,949.2
2018-06-12T06:58:25.677Z,949.19
2018-06-12T06:59:25.672Z,949.2
2018-06-12T07:00:25.667Z,949.21
2018-06-12T07:01:25.661Z,949.21
2018-06-12T07:02:25.655Z,949.18
2018-06-12T07:03:25.650Z,949.15
2018-06-12T07:04:25.645Z,949.15
2018-06-12T07:05:25.645Z,949.18
2018-06-12T07:06:25.635Z,949.19
2018-06-12T07:07:25.629Z,949.16
2018-06-12T07:08:25.625Z,949.17
2018-06-12T07:09:25.620Z,949.22
2018-06-12T07:10:25.613Z,949.16
2018-06-12T07:11:25.609Z,949.19
2018-06-12T07:12:25.603Z,949.16
2018-06-12T07:13:25.602Z,949.16
2018-06-12T07:14:25.594Z,949.1
2018-06-12T07:15:25.590Z,949.08
2018-06-12T07:16:25.590Z,949.1
2018-06-12T07:17:25.579Z,949.06
2018-06-12T07:18:25.574Z,949.09
2018-06-12T07:19:25.568Z,949.07
2018-06-12T07:20:25.564Z,949.11
2018-06-12T07:21:25.563Z,949.15
2018-06-12T07:22:25.554Z,949.14
2018-06-12T07:23:25.558Z,949.14
2018-06-12T07:24:25.546Z,949.17
2018-06-12T07:25:25.541Z,949.16
2018-06-12T07:26:25.536Z,949.14
2018-06-12T07:27:25.534Z,949.16
2018-06-12T07:28:25.528Z,949.21
2018-06-12T07:29:25.523Z,949.18
2018-06-12T07:30:25.520Z,949.19
2018-06-12T07:31:25.515Z,949.21
2018-06-12T07:32:25.515Z,949.18
2018-06-12T07:33:25.507Z,949.19
2018-06-12T07:34:25.503Z,949.16
2018-06-12T07:35:25.499Z,949.12
2018-06-12T07:36:25.493Z,949.18
2018-06-12T07:37:25.504Z,949.17
2018-06-12T07:38:25.484Z,949.21
2018-06-12T07:39:25.481Z,949.2
2018-06-12T07:40:25.484Z,949.21
2018-06-12T07:41:25.472Z,949.28
2018-06-12T07:42:25.469Z,949.27
2018-06-12T07:43:25.509Z,949.28
2018-06-12T07:44:25.460Z,949.27
2018-06-12T07:45:25.456Z,949.3
2018-06-12T07:46:25.451Z,949.28
2018-06-12T07:47:25.450Z,949.32
2018-06-12T07:48:25.445Z,949.36
2018-06-12T07:49:25.437Z,949.35
2018-06-12T07:50:25.433Z,949.38
2018-06-12T07:51:25.428Z,949.38
2018-06-12T07:52:25.425Z,949.39
2018-06-12T07:53:25.423Z,949.38
2018-06-12T07:54:25.416Z,949.38
2018-06-12T07:55:25.411Z,949.39
2018-06-12T07:56:25.405Z,949.31
2018-06-12T07:57:25.400Z,949.39
2018-06-12T07:58:25.395Z,949.37
2018-06-12T07:59:25.391Z,949.38
2018-06-12T08:00:25.388Z,949.36
2018-06-12T08:01:25.382Z,949.31
2018-06-12T08:02:25.378Z,949.3
2018-06-12T08:03:25.373Z,949.26
2018-06-12T08:04:25.369Z,949.27
2018-06-12T08:05:25.363Z,949.26
2018-06-12T08:06:25.360Z,949.24
2018-06-12T08:07:25.357Z,949.26
2018-06-12T08:08:25.351Z,949.27
2018-06-12T08:09:25.345Z,949.24
2018-06-12T08:10:25.342Z,949.21
2018-06-12T08:11:25.338Z,949.27
2018-06-12T08:12:25.332Z,949.26
2018-06-12T08:13:25.329Z,949.29
2018-06-12T08:14:25.324Z,949.27
2018-06-12T08:15:25.320Z,949.24
2018-06-12T08:16:25.314Z,949.27
2018-06-12T08:17:25.311Z,949.27
2018-06-12T08:18:25.307Z,949.29
2018-06-12T08:19:25.302Z,949.31
2018-06-12T08:20:25.297Z,949.3
2018-06-12T08:21:25.293Z,949.31
2018-06-12T08:22:25.290Z,949.25
2018-06-12T08:23:25.285Z,949.19
2018-06-12T08:24:25.280Z,949.22
2018-06-12T08:25:25.276Z,949.2
2018-06-12T08:26:25.274Z,949.21
2018-06-12T08:27:25.268Z,949.23
2018-06-12T08:28:25.265Z,949.2
2018-06-12T08:29:25.262Z,949.24
2018-06-12T08:30:25.490Z,949.2
2018-06-12T08:31:25.254Z,949.18
2018-06-12T08:32:25.249Z,949.16
2018-06-12T08:33:25.247Z,949.15
2018-06-12T08:34:25.242Z,949.21
2018-06-12T08:35:25.240Z,949.19
2018-06-12T08:36:25.238Z,949.21
2018-06-12T08:37:25.233Z,949.21
2018-06-12T08:38:25.231Z,949.19
2018-06-12T08:39:25.226Z,949.22
2018-06-12T08:40:25.223Z,949.24
2018-06-12T08:41:25.220Z,949.22
2018-06-12T08:42:25.215Z,949.23
2018-06-12T08:43:25.212Z,949.23
2018-06-12T08:44:25.209Z,949.18
2018-06-12T08:45:25.205Z,949.22
2018-06-12T08:46:25.255Z,949.2
2018-06-12T08:47:25.199Z,949.22
2018-06-12T08:48:25.196Z,949.22
2018-06-12T08:49:25.190Z,949.22
2018-06-12T08:50:25.187Z,949.2
2018-06-12T08:51:25.187Z,949.2
2018-06-12T08:52:25.183Z,949.2
2018-06-12T08:53:25.178Z,949.18
2018-06-12T08:54:25.175Z,949.16
2018-06-12T08:55:25.172Z,949.16
2018-06-12T08:56:25.168Z,949.18
2018-06-12T08:57:25.166Z,949.21
2018-06-12T08:58:25.161Z,949.23
2018-06-12T08:59:25.157Z,949.23
2018-06-12T09:00:25.157Z,949.28
2018-06-12T09:01:25.150Z,949.31
2018-06-12T09:02:25.150Z,949.28
2018-06-12T09:03:25.143Z,949.27
2018-06-12T09:04:25.138Z,949.29
2018-06-12T09:05:25.136Z,949.27
2018-06-12T09:06:25.132Z,949.28
2018-06-12T09:07:25.128Z,949.32
2018-06-12T09:08:25.133Z,949.3
2018-06-12T09:09:25.125Z,949.33
2018-06-12T09:10:25.118Z,949.34
2018-06-12T09:11:25.116Z,949.36
2018-06-12T09:12:25.112Z,949.39
2018-06-12T09:13:25.113Z,949.41
2018-06-12T09:14:25.104Z,949.42
2018-06-12T09:15:25.105Z,949.41
2018-06-12T09:16:25.096Z,949.47
2018-06-12T09:17:25.092Z,949.54
2018-06-12T09:18:25.087Z,949.55
2018-06-12T09:19:25.088Z,949.57
2018-06-12T09:20:25.080Z,949.59
2018-06-12T09:21:25.080Z,949.54
2018-06-12T09:22:25.072Z,949.56
2018-06-12T09:23:25.069Z,949.52
2018-06-12T09:24:25.064Z,949.47
2018-06-12T09:25:25.062Z,949.45
2018-06-12T09:26:25.058Z,949.45
2018-06-12T09:27:25.054Z,949.41
2018-06-12T09:28:25.051Z,949.39
2018-06-12T09:29:25.048Z,949.4
2018-06-12T09:30:25.044Z,949.42
2018-06-12T09:31:25.041Z,949.39
2018-06-12T09:32:25.038Z,949.42
2018-06-12T09:33:25.034Z,949.43
2018-06-12T09:34:25.031Z,949.41
2018-06-12T09:35:25.032Z,949.44
2018-06-12T09:36:25.027Z,949.44
2018-06-12T09:37:25.021Z,949.47
2018-06-12T09:38:25.021Z,949.5
2018-06-12T09:39:25.015Z,949.47
2018-06-12T09:40:25.011Z,949.5
2018-06-12T09:41:25.008Z,949.51
2018-06-12T09:42:25.006Z,949.5
2018-06-12T09:43:25.003Z,949.56
2018-06-12T09:44:25.006Z,949.59
2018-06-12T09:45:24.995Z,949.6
2018-06-12T09:46:24.991Z,949.59
2018-06-12T09:47:24.988Z,949.6
2018-06-12T09:48:24.984Z,949.61
2018-06-12T09:49:25.009Z,949.63
2018-06-12T09:50:24.977Z,949.61
2018-06-12T09:51:24.974Z,949.59
2018-06-12T09:52:24.971Z,949.6
2018-06-12T09:53:24.968Z,949.56
2018-06-12T09:54:24.964Z,949.57
2018-06-12T09:55:24.960Z,949.58
2018-06-12T09:56:24.957Z,949.6
2018-06-12T09:57:24.952Z,949.56
2018-06-12T09:58:24.949Z,949.62
2018-06-12T09:59:24.952Z,949.61
2018-06-12T10:00:24.944Z,949.61
2018-06-12T10:01:24.941Z,949.63
2018-06-12T10:02:24.940Z,949.57
2018-06-12T10:03:24.933Z,949.59
2018-06-12T10:04:24.929Z,949.58
2018-06-12T10:05:24.927Z,949.6
2018-06-12T10:06:24.924Z,949.54
2018-06-12T10:07:24.920Z,949.54
2018-06-12T10:08:24.917Z,949.53
2018-06-12T10:09:24.914Z,949.56
2018-06-12T10:10:24.910Z,949.51
2018-06-12T10:11:24.908Z,949.52
2018-06-12T10:12:24.904Z,949.54
2018-06-12T10:13:24.901Z,949.54
2018-06-12T10:14:24.901Z,949.5
2018-06-12T10:15:24.895Z,949.52
2018-06-12T10:16:24.892Z,949.52
2018-06-12T10:17:24.889Z,949.52
2018-06-12T10:18:24.885Z,949.51
2018-06-12T10:19:24.883Z,949.54
2018-06-12T10:20:24.879Z,949.53
2018-06-12T10:21:24.877Z,949.54
2018-06-12T10:22:24.873Z,949.54
2018-06-12T10:23:24.872Z,949.5
2018-06-12T10:24:24.870Z,949.48
2018-06-12T10:25:24.866Z,949.49
2018-06-12T10:26:24.862Z,949.51
2018-06-12T10:27:24.859Z,949.5
2018-06-12T10:28:24.859Z,949.53
2018-06-12T10:29:24.854Z,949.45
2018-06-12T10:30:24.852Z,949.45
2018-06-12T10:31:24.849Z,949.47
2018-06-12T10:32:24.846Z,949.47
2018-06-12T10:33:24.843Z,949.46
2018-06-12T10:34:24.841Z,949.46
2018-06-12T10:35:24.838Z,949.5
2018-06-12T10:36:24.836Z,949.51
2018-06-12T10:37:24.952Z,949.49
2018-06-12T10:38:24.832Z,949.51
2018-06-12T10:39:24.829Z,949.51
2018-06-12T10:40:24.827Z,949.5
2018-06-12T10:41:24.826Z,949.47
2018-06-12T10:42:24.822Z,949.5
2018-06-12T10:43:24.821Z,949.48
2018-06-12T10:44:24.819Z,949.46
2018-06-12T10:45:24.818Z,949.47
2018-06-12T10:46:24.840Z,949.46
2018-06-12T10:47:24.813Z,949.48
2018-06-12T10:48:24.812Z,949.49
2018-06-12T10:49:24.811Z,949.49
2018-06-12T10:50:24.809Z,949.43
2018-06-12T10:51:24.809Z,949.46
2018-06-12T10:52:24.808Z,949.41
2018-06-12T10:53:24.805Z,949.39
2018-06-12T10:54:24.804Z,949.41
2018-06-12T10:55:24.803Z,949.4
2018-06-12T10:56:24.828Z,949.4
2018-06-12T10:57:24.850Z,949.36
2018-06-12T10:58:24.803Z,949.35
2018-06-12T10:59:24.799Z,949.3
2018-06-12T11:00:24.799Z,949.34
2018-06-12T11:01:24.798Z,949.28
2018-06-12T11:02:24.798Z,949.25
2018-06-12T11:03:24.797Z,949.26
2018-06-12T11:04:24.795Z,949.27
2018-06-12T11:05:24.796Z,949.28
2018-06-12T11:06:24.795Z,949.3
2018-06-12T11:07:24.794Z,949.31
2018-06-12T11:08:24.793Z,949.3
2018-06-12T11:09:24.793Z,949.27
2018-06-12T11:10:24.793Z,949.26
2018-06-12T11:11:24.792Z,949.26
2018-06-12T11:12:24.791Z,949.22
2018-06-12T11:13:24.791Z,949.3
2018-06-12T11:14:24.792Z,949.25
2018-06-12T11:15:24.790Z,949.29
2018-06-12T11:16:24.790Z,949.27
2018-06-12T11:17:24.790Z,949.21
2018-06-12T11:18:24.790Z,949.3
2018-06-12T11:19:24.788Z,949.29
2018-06-12T11:20:24.789Z,949.28
2018-06-12T11:21:24.790Z,949.34
2018-06-12T11:22:24.789Z,949.34
2018-06-12T11:23:24.787Z,949.38
2018-06-12T11:24:24.789Z,949.37
2018-06-12T11:25:24.788Z,949.35
2018-06-12T11:26:24.787Z,949.36
2018-06-12T11:27:24.792Z,949.31
2018-06-12T11:28:24.788Z,949.36
2018-06-12T11:29:24.788Z,949.28
2018-06-12T11:30:24.788Z,949.35
2018-06-12T11:31:24.788Z,949.3
2018-06-12T11:32:24.788Z,949.26
2018-06-12T11:33:24.789Z,949.25
2018-06-12T11:34:24.787Z,949.23
2018-06-12T11:35:24.787Z,949.21
2018-06-12T11:36:24.787Z,949.21
2018-06-12T11:37:24.791Z,949.24
2018-06-12T11:38:24.787Z,949.23
2018-06-12T11:39:24.790Z,949.25
2018-06-12T11:40:24.787Z,949.27
2018-06-12T11:41:24.787Z,949.25
2018-06-12T11:42:24.786Z,949.24
2018-06-12T11:43:24.788Z,949.22
2018-06-12T11:44:24.785Z,949.21
2018-06-12T11:45:24.787Z,949.19
2018-06-12T11:46:24.788Z,949.14
2018-06-12T11:47:24.788Z,949.16
2018-06-12T11:48:24.787Z,949.2
2018-06-12T11:49:24.788Z,949.23
2018-06-12T11:50:24.788Z,949.23
2018-06-12T11:51:24.789Z,949.2
2018-06-12T11:52:24.788Z,949.31
2018-06-12T11:53:24.792Z,949.28
2018-06-12T11:54:24.788Z,949.26
2018-06-12T11:55:24.788Z,949.27
2018-06-12T11:56:24.788Z,949.25
2018-06-12T11:57:24.789Z,949.25
2018-06-12T11:58:24.788Z,949.22
2018-06-12T11:59:24.787Z,949.25
2018-06-12T12:00:24.787Z,949.27
2018-06-12T12:01:24.787Z,949.24
2018-06-12T12:02:24.790Z,949.25
2018-06-12T12:03:24.785Z,949.21
2018-06-12T12:04:24.783Z,949.2
2018-06-12T12:05:24.784Z,949.19
2018-06-12T12:06:24.782Z,949.23
2018-06-12T12:07:24.782Z,949.17
2018-06-12T12:08:24.780Z,949.23
2018-06-12T12:09:24.780Z,949.19
2018-06-12T12:10:24.779Z,949.18
2018-06-12T12:11:24.778Z,949.17
2018-06-12T12:12:24.785Z,949.16
2018-06-12T12:13:24.776Z,949.19
2018-06-12T12:14:24.775Z,949.17
2018-06-12T12:15:24.775Z,949.22
2018-06-12T12:16:24.784Z,949.22
2018-06-12T12:17:24.770Z,949.19
2018-06-12T12:18:24.770Z,949.17
2018-06-12T12:19:24.769Z,949.15
2018-06-12T12:20:24.769Z,949.17
2018-06-12T12:21:24.797Z,949.14
2018-06-12T12:22:24.765Z,949.14
2018-06-12T12:23:24.794Z,949.13
2018-06-12T12:24:24.764Z,949.14
2018-06-12T12:25:24.761Z,949.12
2018-06-12T12:26:24.760Z,949.14
2018-06-12T12:27:24.760Z,949.13
2018-06-12T12:28:24.757Z,949.12
2018-06-12T12:29:24.757Z,949.12
2018-06-12T12:30:24.756Z,949.15
2018-06-12T12:31:24.755Z,949.1
2018-06-12T12:32:24.753Z,949.08